createdAt,value
2022-09-26T00:01:16.354Z,9.06
2022-09-26T00:03:48.797Z,9.06
2022-09-26T00:06:17.760Z,9.04
2022-09-26T00:08:45.769Z,9.02
2022-09-26T00:11:15.398Z,9.01
2022-09-26T00:13:42.609Z,8.99
2022-09-26T00:16:11.226Z,8.97
2022-09-26T00:18:38.559Z,8.95
2022-09-26T00:21:13.250Z,8.93
2022-09-26T00:23:41.840Z,8.91
2022-09-26T00:26:09.724Z,8.91
2022-09-26T00:28:36.281Z,8.91
2022-09-26T00:31:08.127Z,8.90
2022-09-26T00:33:35.078Z,8.91
2022-09-26T00:36:02.227Z,8.90
2022-09-26T00:38:28.709Z,8.90
2022-09-26T00:40:55.418Z,8.89
2022-09-26T00:43:33.383Z,8.89
2022-09-26T00:46:33.606Z,8.89
2022-09-26T00:49:22.523Z,8.89
2022-09-26T00:52:22.707Z,8.87
2022-09-26T00:54:52.290Z,8.86
2022-09-26T00:57:28.492Z,8.87
2022-09-26T01:00:02.510Z,8.88
2022-09-26T01:02:29.391Z,8.89
2022-09-26T01:04:58.572Z,8.89
2022-09-26T01:07:28.299Z,8.88
2022-09-26T01:09:55.861Z,8.89
2022-09-26T01:12:23.216Z,8.87
2022-09-26T01:14:52.612Z,8.88
2022-09-26T01:17:23.366Z,8.89
2022-09-26T01:19:55.734Z,8.91
2022-09-26T01:22:54.798Z,8.90
2022-09-26T01:25:40.188Z,8.90
2022-09-26T01:28:30.923Z,8.90
2022-09-26T01:31:16.097Z,8.88
2022-09-26T01:34:03.839Z,8.87
2022-09-26T01:36:37.997Z,8.85
2022-09-26T01:39:20.536Z,8.84
2022-09-26T01:41:46.922Z,8.81
2022-09-26T01:44:29.817Z,8.81
2022-09-26T01:47:04.293Z,8.80
2022-09-26T01:49:52.709Z,8.79
2022-09-26T01:52:25.378Z,8.77
2022-09-26T01:55:29.823Z,8.76
2022-09-26T01:58:05.563Z,8.75
2022-09-26T02:00:36.206Z,8.75
2022-09-26T02:03:08.804Z,8.75
2022-09-26T02:05:56.237Z,8.75
2022-09-26T02:08:28.726Z,8.75
2022-09-26T02:11:02.936Z,8.73
2022-09-26T02:13:33.895Z,8.71
2022-09-26T02:16:16.625Z,8.71
2022-09-26T02:19:07.804Z,8.73
2022-09-26T02:21:34.299Z,8.77
2022-09-26T02:24:01.759Z,8.82
2022-09-26T02:26:29.172Z,8.87
2022-09-26T02:28:56.715Z,8.92
2022-09-26T02:31:25.939Z,8.97
2022-09-26T02:33:53.950Z,9.02
2022-09-26T02:36:23.229Z,9.06
2022-09-26T02:38:49.776Z,9.12
2022-09-26T02:41:57.074Z,9.19
2022-09-26T02:44:53.468Z,9.26
2022-09-26T02:47:51.209Z,9.32
2022-09-26T02:50:32.905Z,9.37
2022-09-26T02:53:25.209Z,9.42
2022-09-26T02:56:17.620Z,9.47
2022-09-26T02:59:09.252Z,9.52
2022-09-26T03:01:54.926Z,9.56
2022-09-26T03:04:43.208Z,9.60
2022-09-26T03:07:14.687Z,9.63
2022-09-26T03:09:42.331Z,9.68
2022-09-26T03:12:10.907Z,9.69
2022-09-26T03:14:41.596Z,9.72
2022-09-26T03:17:09.934Z,9.74
2022-09-26T03:19:45.909Z,9.78
2022-09-26T03:22:13.086Z,9.80
2022-09-26T03:24:43.449Z,9.83
2022-09-26T03:27:14.360Z,9.85
2022-09-26T03:29:41.040Z,9.87
2022-09-26T03:32:13.092Z,9.90
2022-09-26T03:34:39.960Z,9.91
2022-09-26T03:37:07.172Z,9.91
2022-09-26T03:39:33.735Z,9.93
2022-09-26T03:42:05.296Z,9.96
2022-09-26T03:44:31.822Z,9.98
2022-09-26T03:47:04.602Z,10.02
2022-09-26T03:49:35.010Z,10.03
2022-09-26T03:52:02.147Z,10.05
2022-09-26T03:54:28.755Z,10.06
2022-09-26T03:56:55.563Z,10.08
2022-09-26T03:59:22.277Z,10.09
2022-09-26T04:01:51.673Z,10.10
2022-09-26T04:04:18.208Z,10.12
2022-09-26T04:06:45.086Z,10.13
2022-09-26T04:09:16.841Z,10.14
2022-09-26T04:11:46.635Z,10.15
2022-09-26T04:14:13.259Z,10.14
2022-09-26T04:16:40.648Z,10.12
2022-09-26T04:19:28.382Z,10.10
2022-09-26T04:21:55.189Z,10.09
2022-09-26T04:24:21.705Z,10.08
2022-09-26T04:26:48.246Z,10.10
2022-09-26T04:29:15.438Z,10.11
2022-09-26T04:32:00.867Z,10.12
2022-09-26T04:34:39.939Z,10.14
2022-09-26T04:37:08.998Z,10.16
2022-09-26T04:39:35.993Z,10.18
2022-09-26T04:42:02.484Z,10.20
2022-09-26T04:44:30.333Z,10.22
2022-09-26T04:46:58.048Z,10.25
2022-09-26T04:49:35.978Z,10.26
2022-09-26T04:52:02.438Z,10.25
2022-09-26T04:54:28.916Z,10.28
2022-09-26T04:56:55.385Z,10.29
2022-09-26T04:59:22.177Z,10.29
2022-09-26T05:01:59.871Z,10.30
2022-09-26T05:04:33.355Z,10.31
2022-09-26T05:07:00.169Z,10.32
2022-09-26T05:09:34.178Z,10.35
2022-09-26T05:12:05.705Z,10.34
2022-09-26T05:14:35.358Z,10.36
2022-09-26T05:17:03.898Z,10.37
2022-09-26T05:19:30.549Z,10.39
2022-09-26T05:22:15.977Z,10.40
2022-09-26T05:25:01.172Z,10.43
2022-09-26T05:27:27.708Z,10.47
2022-09-26T05:29:55.837Z,10.49
2022-09-26T05:32:23.028Z,10.51
2022-09-26T05:34:51.120Z,10.52
2022-09-26T05:37:20.188Z,10.54
2022-09-26T05:40:05.617Z,10.57
2022-09-26T05:42:34.181Z,10.59
2022-09-26T05:45:03.103Z,10.62
2022-09-26T05:47:36.149Z,10.63
2022-09-26T05:50:09.795Z,10.65
2022-09-26T05:52:37.954Z,10.69
2022-09-26T05:55:05.337Z,10.72
2022-09-26T05:58:05.690Z,10.75
2022-09-26T06:00:51.636Z,10.81
2022-09-26T06:03:18.591Z,10.85
2022-09-26T06:06:05.892Z,10.93
2022-09-26T06:08:35.468Z,10.98
2022-09-26T06:11:18.169Z,11.04
2022-09-26T06:13:45.869Z,11.12
2022-09-26T06:16:19.373Z,11.19
2022-09-26T06:18:48.127Z,11.27
2022-09-26T06:21:17.030Z,11.33
2022-09-26T06:23:44.371Z,11.38
2022-09-26T06:26:22.741Z,11.46
2022-09-26T06:29:07.458Z,11.58
2022-09-26T06:31:35.915Z,11.70
2022-09-26T06:34:08.610Z,11.85
2022-09-26T06:36:44.176Z,12.00
2022-09-26T06:39:10.711Z,12.12
2022-09-26T06:41:37.420Z,12.21
2022-09-26T06:44:23.798Z,12.28
2022-09-26T06:47:07.944Z,12.34
2022-09-26T06:49:38.501Z,12.39
2022-09-26T06:52:19.827Z,12.42
2022-09-26T06:54:46.404Z,12.44
2022-09-26T06:57:15.174Z,12.48
2022-09-26T06:59:41.912Z,12.49
2022-09-26T07:02:19.633Z,12.52
2022-09-26T07:04:59.913Z,12.52
2022-09-26T07:07:41.844Z,12.55
2022-09-26T07:10:12.888Z,12.59
2022-09-26T07:12:48.853Z,12.62
2022-09-26T07:15:18.719Z,12.64
2022-09-26T07:17:48.206Z,12.63
2022-09-26T07:20:47.729Z,12.63
2022-09-26T07:23:43.234Z,12.60
2022-09-26T07:26:11.045Z,12.53
2022-09-26T07:28:38.579Z,12.45
2022-09-26T07:31:05.601Z,12.40
2022-09-26T07:33:50.693Z,12.40
2022-09-26T07:36:18.595Z,12.44
2022-09-26T07:38:48.541Z,12.52
2022-09-26T07:41:17.493Z,12.57
2022-09-26T07:46:49.357Z,12.57
2022-09-26T07:49:34.525Z,12.53
2022-09-26T07:52:14.986Z,12.57
2022-09-26T07:54:50.090Z,12.56
2022-09-26T07:57:37.240Z,12.53
2022-09-26T08:00:24.644Z,12.56
2022-09-26T08:03:13.289Z,12.59
2022-09-26T08:05:42.571Z,12.65
2022-09-26T08:08:10.001Z,12.70
2022-09-26T08:11:02.808Z,12.81
2022-09-26T08:13:45.934Z,12.88
2022-09-26T08:16:31.191Z,12.96
2022-09-26T08:19:01.705Z,13.08
2022-09-26T08:21:28.941Z,13.27
2022-09-26T08:23:57.362Z,13.50
2022-09-26T08:26:32.735Z,13.65
2022-09-26T08:29:05.053Z,13.81
2022-09-26T08:31:34.854Z,13.96
2022-09-26T08:34:02.160Z,14.03
2022-09-26T08:36:28.781Z,14.02
2022-09-26T08:39:05.196Z,14.01
2022-09-26T08:42:23.909Z,14.06
2022-09-26T08:45:54.698Z,14.05
2022-09-26T08:48:39.182Z,13.95
2022-09-26T08:51:28.909Z,13.99
2022-09-26T08:54:16.675Z,14.22
2022-09-26T08:56:48.057Z,14.42
2022-09-26T08:59:27.276Z,14.50
2022-09-26T09:01:57.271Z,14.52
2022-09-26T09:04:44.315Z,14.67
2022-09-26T09:07:21.352Z,14.88
2022-09-26T09:09:50.445Z,15.08
2022-09-26T09:13:17.435Z,15.31
2022-09-26T09:16:08.346Z,15.32
2022-09-26T09:19:08.243Z,15.26
2022-09-26T09:22:00.371Z,15.10
2022-09-26T09:24:58.352Z,15.03
2022-09-26T09:28:01.430Z,15.01
2022-09-26T09:31:00.024Z,15.22
2022-09-26T09:33:45.934Z,15.29
2022-09-26T09:36:43.135Z,15.42
2022-09-26T09:39:29.501Z,15.56
2022-09-26T09:42:36.198Z,15.75
2022-09-26T09:45:06.812Z,15.87
2022-09-26T09:47:39.208Z,15.90
2022-09-26T09:50:15.325Z,15.94
2022-09-26T09:52:59.412Z,15.94
2022-09-26T09:55:49.659Z,16.02
2022-09-26T09:58:53.436Z,16.04
2022-09-26T10:01:30.723Z,16.11
2022-09-26T10:04:23.469Z,16.24
2022-09-26T10:06:51.070Z,16.33
2022-09-26T10:09:38.584Z,16.39
2022-09-26T10:12:30.571Z,16.54
2022-09-26T10:15:21.612Z,16.74
2022-09-26T10:18:29.782Z,16.97
2022-09-26T10:21:17.837Z,17.05
2022-09-26T10:23:50.404Z,17.05
2022-09-26T10:26:36.876Z,17.05
2022-09-26T10:29:19.828Z,17.11
2022-09-26T10:31:49.067Z,17.11
2022-09-26T10:34:42.359Z,17.15
2022-09-26T10:37:30.288Z,17.23
2022-09-26T10:40:43.882Z,17.33
2022-09-26T10:43:37.949Z,17.36
2022-09-26T10:46:21.565Z,17.36
2022-09-26T10:49:15.673Z,17.28
2022-09-26T10:52:34.600Z,17.23
2022-09-26T10:55:09.718Z,17.27
2022-09-26T10:57:45.207Z,17.25
2022-09-26T11:00:38.781Z,17.23
2022-09-26T11:03:15.074Z,17.26
2022-09-26T11:06:01.897Z,17.30
2022-09-26T11:08:34.878Z,17.28
2022-09-26T11:11:17.406Z,17.20
2022-09-26T11:13:56.335Z,17.04
2022-09-26T11:16:23.097Z,16.91
2022-09-26T11:19:08.911Z,16.88
2022-09-26T11:21:48.994Z,16.93
2022-09-26T11:24:25.713Z,17.01
2022-09-26T11:27:19.797Z,17.09
2022-09-26T11:29:55.644Z,17.09
2022-09-26T11:32:41.174Z,17.07
2022-09-26T11:35:33.211Z,17.15
2022-09-26T11:38:46.332Z,17.29
2022-09-26T11:41:36.704Z,17.51
2022-09-26T11:44:28.535Z,17.66
2022-09-26T11:47:36.824Z,17.87
2022-09-26T11:50:25.396Z,18.03
2022-09-26T11:53:17.579Z,18.23
2022-09-26T11:56:15.924Z,18.35
2022-09-26T11:58:43.435Z,18.34
2022-09-26T12:01:39.525Z,18.35
2022-09-26T12:04:18.413Z,18.32
2022-09-26T12:06:57.983Z,18.32
2022-09-26T12:09:38.273Z,18.24
2022-09-26T12:12:19.408Z,18.20
2022-09-26T12:15:02.279Z,18.14
2022-09-26T12:17:45.129Z,18.09
2022-09-26T12:20:23.754Z,18.16
2022-09-26T12:23:24.613Z,18.24
2022-09-26T12:26:15.343Z,18.28
2022-09-26T12:29:06.582Z,18.35
2022-09-26T12:32:01.181Z,18.38
2022-09-26T12:34:33.578Z,18.43
2022-09-26T12:37:32.120Z,18.27
2022-09-26T12:40:09.458Z,18.39
2022-09-26T12:43:00.884Z,18.38
2022-09-26T12:45:49.655Z,18.18
2022-09-26T12:48:32.289Z,18.03
2022-09-26T12:51:23.862Z,17.87
2022-09-26T12:54:15.481Z,17.90
2022-09-26T12:56:47.696Z,17.91
2022-09-26T12:59:22.933Z,17.79
2022-09-26T13:01:59.907Z,17.66
2022-09-26T13:04:41.753Z,17.52
2022-09-26T13:07:31.803Z,17.53
2022-09-26T13:10:11.945Z,17.47
2022-09-26T13:12:45.706Z,17.40
2022-09-26T13:15:22.421Z,17.38
2022-09-26T13:18:02.347Z,17.39
2022-09-26T13:20:43.674Z,17.41
2022-09-26T13:23:27.271Z,17.43
2022-09-26T13:26:04.581Z,17.49
2022-09-26T13:29:06.276Z,17.53
2022-09-26T13:31:41.057Z,17.57
2022-09-26T13:34:17.742Z,17.57
2022-09-26T13:36:45.829Z,17.62
2022-09-26T13:39:24.974Z,17.66
2022-09-26T13:42:23.779Z,17.70
2022-09-26T13:45:19.350Z,17.56
2022-09-26T13:47:57.900Z,17.45
2022-09-26T13:50:34.351Z,17.35
2022-09-26T13:53:26.878Z,17.26
2022-09-26T13:56:31.210Z,17.14
2022-09-26T13:59:13.382Z,17.06
2022-09-26T14:02:15.975Z,17.00
2022-09-26T14:04:47.970Z,16.96
2022-09-26T14:07:35.367Z,16.89
2022-09-26T14:10:05.003Z,16.89
2022-09-26T14:12:51.224Z,16.88
2022-09-26T14:15:26.918Z,16.81
2022-09-26T14:18:34.893Z,16.73
2022-09-26T14:21:13.151Z,16.69
2022-09-26T14:23:41.046Z,16.64
2022-09-26T14:26:12.716Z,16.59
2022-09-26T14:28:45.797Z,16.53
2022-09-26T14:31:24.200Z,16.47
2022-09-26T14:34:06.245Z,16.38
2022-09-26T14:36:35.372Z,16.33
2022-09-26T14:39:04.922Z,16.32
2022-09-26T14:41:34.741Z,16.30
2022-09-26T14:44:04.499Z,16.25
2022-09-26T14:46:35.592Z,16.25
2022-09-26T14:49:06.014Z,16.23
2022-09-26T14:51:42.594Z,16.20
2022-09-26T14:54:24.653Z,16.11
2022-09-26T14:57:00.751Z,16.09
2022-09-26T14:59:36.125Z,16.03
2022-09-26T15:02:15.232Z,15.97
2022-09-26T15:04:46.958Z,15.99
2022-09-26T15:07:21.752Z,15.93
2022-09-26T15:10:13.663Z,15.84
2022-09-26T15:12:48.047Z,15.80
2022-09-26T15:15:47.433Z,15.74
2022-09-26T15:18:28.313Z,15.72
2022-09-26T15:21:04.007Z,15.71
2022-09-26T15:23:34.229Z,15.65
2022-09-26T15:26:06.055Z,15.58
2022-09-26T15:28:34.812Z,15.51
2022-09-26T15:31:20.482Z,15.45
2022-09-26T15:33:50.419Z,15.39
2022-09-26T15:36:18.057Z,15.36
2022-09-26T15:38:47.351Z,15.35
2022-09-26T15:41:39.250Z,15.36
2022-09-26T15:44:08.084Z,15.45
2022-09-26T15:46:34.721Z,15.51
2022-09-26T15:49:01.548Z,15.57
2022-09-26T15:51:37.689Z,15.65
2022-09-26T15:54:11.219Z,15.69
2022-09-26T15:56:42.644Z,15.69
2022-09-26T15:59:09.036Z,15.67
2022-09-26T16:01:41.739Z,15.63
2022-09-26T16:04:29.438Z,15.58
2022-09-26T16:07:01.960Z,15.55
2022-09-26T16:09:32.327Z,15.51
2022-09-26T16:12:04.927Z,15.47
2022-09-26T16:14:45.459Z,15.47
2022-09-26T16:17:36.982Z,15.46
2022-09-26T16:20:11.645Z,15.44
2022-09-26T16:22:46.150Z,15.40
2022-09-26T16:25:15.489Z,15.37
2022-09-26T16:27:42.927Z,15.34
2022-09-26T16:30:30.753Z,15.32
2022-09-26T16:33:03.054Z,15.21
2022-09-26T16:35:33.482Z,15.15
2022-09-26T16:38:07.412Z,15.07
2022-09-26T16:40:35.785Z,15.02
2022-09-26T16:43:17.675Z,14.98
2022-09-26T16:45:55.625Z,14.89
2022-09-26T16:48:48.126Z,14.86
2022-09-26T16:51:25.267Z,14.83
2022-09-26T16:54:02.694Z,14.78
2022-09-26T16:56:29.683Z,14.74
2022-09-26T16:59:02.241Z,14.69
2022-09-26T17:01:48.186Z,14.68
2022-09-26T17:04:20.277Z,14.64
2022-09-26T17:06:47.558Z,14.62
2022-09-26T17:09:18.789Z,14.59
2022-09-26T17:11:48.210Z,14.57
2022-09-26T17:14:21.223Z,14.53
2022-09-26T17:16:55.020Z,14.51
2022-09-26T17:19:24.417Z,14.48
2022-09-26T17:21:51.176Z,14.45
2022-09-26T17:24:23.407Z,14.43
2022-09-26T17:27:03.109Z,14.38
2022-09-26T17:29:35.154Z,14.36
2022-09-26T17:32:08.820Z,14.32
2022-09-26T17:34:36.881Z,14.30
2022-09-26T17:37:04.058Z,14.28
2022-09-26T17:39:30.829Z,14.26
2022-09-26T17:41:59.449Z,14.23
2022-09-26T17:44:26.201Z,14.22
2022-09-26T17:46:56.177Z,14.20
2022-09-26T17:49:30.544Z,14.18
2022-09-26T17:52:00.685Z,14.15
2022-09-26T17:54:31.311Z,14.14
2022-09-26T17:57:01.076Z,14.12
2022-09-26T17:59:28.647Z,14.11
2022-09-26T18:02:00.619Z,14.10
2022-09-26T18:04:29.171Z,14.08
2022-09-26T18:07:08.101Z,14.06
2022-09-26T18:09:35.469Z,14.03
2022-09-26T18:12:04.291Z,13.99
2022-09-26T18:14:34.111Z,13.97
2022-09-26T18:17:01.441Z,13.96
2022-09-26T18:19:28.408Z,13.96
2022-09-26T18:21:55.997Z,13.97
2022-09-26T18:24:27.272Z,13.96
2022-09-26T18:26:57.104Z,13.95
2022-09-26T18:29:33.153Z,13.93
2022-09-26T18:32:01.192Z,13.92
2022-09-26T18:34:27.793Z,13.92
2022-09-26T18:37:00.264Z,13.92
2022-09-26T18:39:27.644Z,13.90
2022-09-26T18:42:00.797Z,13.87
2022-09-26T18:44:28.438Z,13.86
2022-09-26T18:46:59.610Z,13.85
2022-09-26T18:49:31.129Z,13.84
2022-09-26T18:51:57.650Z,13.84
2022-09-26T18:54:25.797Z,13.82
2022-09-26T18:57:12.210Z,13.79
2022-09-26T18:59:38.797Z,13.78
2022-09-26T19:02:19.895Z,13.76
2022-09-26T19:04:46.732Z,13.76
2022-09-26T19:07:20.884Z,13.75
2022-09-26T19:09:48.109Z,13.71
2022-09-26T19:12:15.532Z,13.68
2022-09-26T19:14:42.469Z,13.66
2022-09-26T19:17:08.890Z,13.63
2022-09-26T19:19:35.450Z,13.61
2022-09-26T19:22:12.964Z,13.59
2022-09-26T19:24:48.599Z,13.61
2022-09-26T19:27:32.223Z,13.61
2022-09-26T19:30:02.764Z,13.63
2022-09-26T19:32:37.180Z,13.63
2022-09-26T19:35:12.273Z,13.62
2022-09-26T19:37:38.933Z,13.61
2022-09-26T19:40:19.406Z,13.60
2022-09-26T19:42:46.550Z,13.60
2022-09-26T19:45:15.226Z,13.59
2022-09-26T19:47:46.417Z,13.57
2022-09-26T19:50:19.774Z,13.57
2022-09-26T19:52:47.455Z,13.56
2022-09-26T19:55:16.158Z,13.55
2022-09-26T19:57:42.814Z,13.53
2022-09-26T20:00:11.834Z,13.52
2022-09-26T20:02:38.914Z,13.52
2022-09-26T20:05:24.003Z,13.51
2022-09-26T20:07:51.314Z,13.51
2022-09-26T20:10:25.104Z,13.51
2022-09-26T20:12:52.193Z,13.52
2022-09-26T20:15:22.432Z,13.52
2022-09-26T20:17:49.615Z,13.54
2022-09-26T20:20:17.101Z,13.54
2022-09-26T20:22:44.412Z,13.56
2022-09-26T20:25:17.063Z,13.54
2022-09-26T20:27:43.818Z,13.55
2022-09-26T20:30:34.264Z,13.57
2022-09-26T20:33:01.382Z,13.58
2022-09-26T20:35:34.497Z,13.58
2022-09-26T20:38:15.412Z,13.59
2022-09-26T20:40:42.109Z,13.60
2022-09-26T20:43:15.082Z,13.60
2022-09-26T20:45:44.022Z,13.59
2022-09-26T20:48:19.536Z,13.58
2022-09-26T20:50:48.233Z,13.57
2022-09-26T20:53:23.224Z,13.55
2022-09-26T20:55:51.969Z,13.52
2022-09-26T20:58:18.791Z,13.50
2022-09-26T21:00:46.079Z,13.49
2022-09-26T21:03:15.713Z,13.48
2022-09-26T21:05:43.270Z,13.47
2022-09-26T21:08:29.072Z,13.45
2022-09-26T21:10:56.559Z,13.42
2022-09-26T21:13:23.300Z,13.41
2022-09-26T21:15:51.296Z,13.42
2022-09-26T21:18:30.218Z,13.40
2022-09-26T21:21:05.556Z,13.39
2022-09-26T21:23:45.891Z,13.37
2022-09-26T21:26:18.110Z,13.38
2022-09-26T21:28:44.675Z,13.37
2022-09-26T21:31:20.044Z,13.38
2022-09-26T21:33:46.844Z,13.38
2022-09-26T21:36:13.436Z,13.38
2022-09-26T21:38:40.051Z,13.38
2022-09-26T21:41:07.683Z,13.38
2022-09-26T21:43:38.578Z,13.38
2022-09-26T21:46:05.941Z,13.37
2022-09-26T21:48:32.862Z,13.35
2022-09-26T21:51:00.215Z,13.35
2022-09-26T21:53:37.113Z,13.34
2022-09-26T21:56:08.525Z,13.34
2022-09-26T21:58:38.148Z,13.32
2022-09-26T22:01:04.825Z,13.31
2022-09-26T22:03:32.069Z,13.32
2022-09-26T22:05:59.824Z,13.30
2022-09-26T22:08:28.159Z,13.29
2022-09-26T22:10:55.086Z,13.29
2022-09-26T22:13:21.885Z,13.29
2022-09-26T22:15:48.831Z,13.26
2022-09-26T22:18:15.342Z,13.26
2022-09-26T22:20:41.822Z,13.28
2022-09-26T22:23:08.371Z,13.27
2022-09-26T22:25:34.816Z,13.27
2022-09-26T22:28:01.670Z,13.26
2022-09-26T22:30:28.351Z,13.24
2022-09-26T22:32:54.865Z,13.25
2022-09-26T22:35:21.955Z,13.24
2022-09-26T22:37:48.610Z,13.22
2022-09-26T22:40:15.274Z,13.20
2022-09-26T22:42:41.899Z,13.20
2022-09-26T22:45:08.985Z,13.19
2022-09-26T22:47:35.464Z,13.18
2022-09-26T22:50:02.000Z,13.18
2022-09-26T22:52:28.665Z,13.18
2022-09-26T22:54:55.163Z,13.19
2022-09-26T22:57:21.695Z,13.18
2022-09-26T22:59:48.341Z,13.17
2022-09-26T23:02:15.371Z,13.14
2022-09-26T23:04:47.985Z,13.13
2022-09-26T23:07:17.635Z,13.11
2022-09-26T23:09:44.737Z,13.07
2022-09-26T23:12:11.896Z,13.06
2022-09-26T23:14:38.648Z,13.04
2022-09-26T23:17:05.279Z,13.05
2022-09-26T23:19:32.457Z,13.03
2022-09-26T23:21:59.027Z,13.00
2022-09-26T23:24:25.564Z,12.98
2022-09-26T23:26:52.576Z,12.94
2022-09-26T23:29:19.101Z,12.91
2022-09-26T23:31:45.745Z,12.92
2022-09-26T23:34:12.204Z,12.88
2022-09-26T23:36:38.725Z,12.87
2022-09-26T23:39:05.358Z,12.84
2022-09-26T23:41:31.923Z,12.82
2022-09-26T23:43:58.423Z,12.81
2022-09-26T23:46:25.013Z,12.79
2022-09-26T23:48:51.928Z,12.77
2022-09-26T23:51:18.470Z,12.76
2022-09-26T23:53:44.963Z,12.75
2022-09-26T23:56:16.908Z,12.75
2022-09-26T23:58:43.737Z,12.74
